createdAt,value
2023-05-06T11:51:27.563Z,1.00
2023-05-06T11:52:27.540Z,2.20
2023-05-06T11:53:27.545Z,2.00
2023-05-06T11:55:10.863Z,1.40
2023-05-06T11:56:10.905Z,3.40
2023-05-06T11:57:10.759Z,1.90
2023-05-06T11:58:10.744Z,2.50
2023-05-06T11:59:10.635Z,1.40
2023-05-06T12:00:10.930Z,1.50
2023-05-06T12:01:10.627Z,2.60
2023-05-06T12:02:10.501Z,1.80
2023-05-06T12:03:10.575Z,2.20
2023-05-06T12:04:10.719Z,1.50
2023-05-06T12:05:10.386Z,1.60
2023-05-06T12:06:10.384Z,2.80
2023-05-06T12:07:10.418Z,2.30
2023-05-06T12:08:23.539Z,1.80
2023-05-06T12:09:10.287Z,3.00
2023-05-06T12:10:10.449Z,1.90
2023-05-06T12:11:10.297Z,1.60
2023-05-06T12:12:10.158Z,2.00
2023-05-06T12:13:10.187Z,1.50
2023-05-06T12:14:10.162Z,2.70
2023-05-06T12:15:10.039Z,1.60
2023-05-06T12:16:10.083Z,2.60
2023-05-06T12:17:12.685Z,1.70
2023-05-06T12:18:09.922Z,1.60
2023-05-06T12:19:13.513Z,3.00
2023-05-06T12:20:58.299Z,2.10
2023-05-06T12:21:58.291Z,2.80
2023-05-06T12:22:58.386Z,2.90
2023-05-06T12:23:58.357Z,2.00
2023-05-06T12:24:58.168Z,1.90
2023-05-06T12:25:58.168Z,1.30
2023-05-06T12:26:58.191Z,1.50
2023-05-06T12:27:58.076Z,1.70
2023-05-06T12:28:58.058Z,1.60
2023-05-06T12:29:58.050Z,1.50
2023-05-06T12:30:57.936Z,2.10
2023-05-06T12:31:57.965Z,1.90
2023-05-06T12:32:57.983Z,2.50
2023-05-06T12:34:00.555Z,2.10
2023-05-06T12:34:57.821Z,2.50
2023-05-06T12:35:57.825Z,1.80
2023-05-06T12:36:57.834Z,1.70
2023-05-06T12:37:57.712Z,1.60
2023-05-06T12:38:57.755Z,1.60
2023-05-06T12:39:59.179Z,2.00
2023-05-06T12:40:57.597Z,1.80
2023-05-06T12:41:57.589Z,1.40
2023-05-06T12:42:57.593Z,1.40
2023-05-06T12:43:57.472Z,2.20
2023-05-06T12:44:57.475Z,1.80
2023-05-06T12:45:58.080Z,1.50
2023-05-06T12:46:57.439Z,2.00
2023-05-06T12:47:57.366Z,1.50
2023-05-06T12:48:57.357Z,1.90
2023-05-06T12:49:57.362Z,1.60
2023-05-06T12:50:57.263Z,2.30
2023-05-06T12:51:57.252Z,2.90
2023-05-06T12:52:57.261Z,1.50
2023-05-06T12:53:57.128Z,2.40
2023-05-06T12:54:57.194Z,1.70
2023-05-06T12:55:57.120Z,2.10
2023-05-06T12:56:57.015Z,2.20
2023-05-06T12:57:57.942Z,1.80
2023-05-06T12:58:57.014Z,2.10
2023-05-06T12:59:56.890Z,1.80
2023-05-06T13:00:56.916Z,4.70
2023-05-06T13:01:56.892Z,2.20
2023-05-06T13:02:56.961Z,2.10
2023-05-06T13:03:56.772Z,2.70
2023-05-06T13:04:56.776Z,11.60
2023-05-06T13:05:56.776Z,5.90
2023-05-06T13:06:56.656Z,4.30
2023-05-06T13:07:56.664Z,7.40
2023-05-06T13:08:56.665Z,30.40
2023-05-06T13:09:56.550Z,7.30
2023-05-06T13:10:56.633Z,4.20
2023-05-06T13:11:56.538Z,3.40
2023-05-06T13:12:56.474Z,3.00
2023-05-06T13:13:56.421Z,2.60
2023-05-06T13:14:56.424Z,4.60
2023-05-06T13:15:56.405Z,2.60
2023-05-06T13:16:56.356Z,1.80
2023-05-06T13:17:56.359Z,4.60
2023-05-06T13:18:56.314Z,3.40
2023-05-06T13:19:56.197Z,2.00
2023-05-06T13:20:56.199Z,1.90
2023-05-06T13:21:56.192Z,1.90
2023-05-06T13:22:56.074Z,3.20
2023-05-06T13:23:56.075Z,2.80
2023-05-06T13:24:56.074Z,2.30
2023-05-06T13:26:04.078Z,2.00
2023-05-06T13:26:56.066Z,1.50
2023-05-06T13:27:55.955Z,2.00
2023-05-06T13:28:55.835Z,3.60
2023-05-06T13:29:55.840Z,2.20
2023-05-06T13:30:55.889Z,3.00
2023-05-06T13:31:55.807Z,1.90
2023-05-06T13:32:55.765Z,3.10
2023-05-06T13:33:55.729Z,2.30
2023-05-06T13:34:55.728Z,1.60
2023-05-06T13:35:55.613Z,2.80
2023-05-06T13:36:55.608Z,2.30
2023-05-06T13:37:55.606Z,6.20
2023-05-06T13:38:55.489Z,7.30
2023-05-06T13:39:55.509Z,57.00
2023-05-06T13:40:55.489Z,65.60
2023-05-06T13:41:55.366Z,11.80
2023-05-06T13:42:55.482Z,2.80
2023-05-06T13:43:55.372Z,3.00
2023-05-06T13:44:55.374Z,5.50
2023-05-06T13:45:55.296Z,1.80
2023-05-06T13:46:55.330Z,2.40
2023-05-06T13:47:55.309Z,1.70
2023-05-06T13:48:55.139Z,2.90
2023-05-06T13:49:55.144Z,3.40
2023-05-06T13:50:55.140Z,2.50
2023-05-06T13:51:55.021Z,3.00
2023-05-06T13:52:55.024Z,1.90
2023-05-06T13:53:55.023Z,2.40
2023-05-06T13:54:54.993Z,2.50
2023-05-06T13:55:54.908Z,2.60
2023-05-06T13:56:54.905Z,2.40
2023-05-06T13:57:54.929Z,2.10
2023-05-06T13:58:54.812Z,1.70
2023-05-06T13:59:54.791Z,1.50
2023-05-06T14:00:54.794Z,1.70
2023-05-06T14:01:54.683Z,2.90
2023-05-06T14:02:54.704Z,1.90
2023-05-06T14:03:54.675Z,2.10
2023-05-06T14:04:54.657Z,2.30
2023-05-06T14:05:54.553Z,2.30
2023-05-06T14:06:54.558Z,2.50
2023-05-06T14:07:54.555Z,2.00
2023-05-06T14:08:54.443Z,2.40
2023-05-06T14:09:54.440Z,2.60
2023-05-06T14:10:54.441Z,2.20
2023-05-06T14:11:54.325Z,2.00
2023-05-06T14:12:54.364Z,1.90
2023-05-06T14:13:54.325Z,2.10
2023-05-06T14:14:54.242Z,2.80
2023-05-06T14:15:54.284Z,2.50
2023-05-06T14:16:54.216Z,3.30
2023-05-06T14:17:54.177Z,1.60
2023-05-06T14:18:54.088Z,1.80
2023-05-06T14:19:54.085Z,3.90
2023-05-06T14:20:54.088Z,2.00
2023-05-06T14:21:53.978Z,2.60
2023-05-06T14:22:54.002Z,2.20
2023-05-06T14:23:53.989Z,2.30
2023-05-06T14:24:53.854Z,1.90
2023-05-06T14:25:53.855Z,1.90
2023-05-06T14:26:53.974Z,2.70
2023-05-06T14:27:53.737Z,1.70
2023-05-06T14:28:53.739Z,1.80
2023-05-06T14:29:53.738Z,2.40
2023-05-06T14:30:53.708Z,1.70
2023-05-06T14:31:53.656Z,2.60
2023-05-06T14:32:53.695Z,2.40
2023-05-06T14:33:53.501Z,2.50
2023-05-06T14:34:53.506Z,2.00
2023-05-06T14:35:53.511Z,1.90
2023-05-06T14:36:53.527Z,3.20
2023-05-06T14:37:53.387Z,1.90
2023-05-06T14:38:53.394Z,2.10
2023-05-06T14:39:53.388Z,2.10
2023-05-06T14:40:53.269Z,2.70
2023-05-06T14:41:53.270Z,1.90
2023-05-06T14:42:53.273Z,3.20
2023-05-06T14:43:53.153Z,3.30
2023-05-06T14:44:53.177Z,3.30
2023-05-06T14:45:53.238Z,2.40
2023-05-06T14:46:53.125Z,2.60
2023-05-06T14:47:53.113Z,2.50
2023-05-06T14:48:53.051Z,2.20
2023-05-06T14:49:52.918Z,2.90
2023-05-06T14:50:52.935Z,2.00
2023-05-06T14:51:52.925Z,2.00
2023-05-06T14:52:52.815Z,2.70
2023-05-06T14:53:52.810Z,3.20
2023-05-06T14:54:52.851Z,3.50
2023-05-06T14:55:52.772Z,3.00
2023-05-06T14:56:52.688Z,2.70
2023-05-06T14:57:52.692Z,2.30
2023-05-06T14:58:52.699Z,2.60
2023-05-06T14:59:52.564Z,2.10
2023-05-06T15:00:52.685Z,2.40
2023-05-06T15:01:52.567Z,2.80
2023-05-06T15:02:52.514Z,3.00
2023-05-06T15:03:52.456Z,1.60
2023-05-06T15:04:52.459Z,2.50
2023-05-06T15:05:52.391Z,2.10
2023-05-06T15:06:52.348Z,2.10
2023-05-06T15:07:52.344Z,2.40
2023-05-06T15:08:52.218Z,3.30
2023-05-06T15:09:52.223Z,2.40
2023-05-06T15:10:52.231Z,2.30
2023-05-06T15:11:52.100Z,3.10
2023-05-06T15:12:52.137Z,3.40
2023-05-06T15:13:52.111Z,2.00
2023-05-06T15:14:51.994Z,2.00
2023-05-06T15:15:52.024Z,3.30
2023-05-06T15:16:52.037Z,3.40
2023-05-06T15:17:51.896Z,2.70
2023-05-06T15:18:51.965Z,4.50
2023-05-06T15:19:51.870Z,1.90
2023-05-06T15:20:51.752Z,3.30
2023-05-06T15:21:51.752Z,1.50
2023-05-06T15:22:51.763Z,1.90
2023-05-06T15:23:51.638Z,2.90
2023-05-06T15:24:51.638Z,2.70
2023-05-06T15:25:51.637Z,2.20
2023-05-06T15:26:51.526Z,2.90
2023-05-06T15:27:51.517Z,2.00
2023-05-06T15:28:51.524Z,2.70
2023-05-06T15:29:51.401Z,2.70
2023-05-06T15:30:51.412Z,2.80
2023-05-06T15:31:51.469Z,1.70
2023-05-06T15:32:51.335Z,3.30
2023-05-06T15:33:51.291Z,3.60
2023-05-06T15:34:51.304Z,2.20
2023-05-06T15:35:51.173Z,2.60
2023-05-06T15:36:51.171Z,2.30
2023-05-06T15:37:51.173Z,2.80
2023-05-06T15:38:51.059Z,2.40
2023-05-06T15:39:51.061Z,2.80
2023-05-06T15:40:51.080Z,2.50
2023-05-06T15:41:50.959Z,3.30
2023-05-06T15:42:50.942Z,2.60
2023-05-06T15:43:50.938Z,4.30
2023-05-06T15:44:50.823Z,4.00
2023-05-06T15:45:50.876Z,2.70
2023-05-06T15:46:50.822Z,3.30
2023-05-06T15:47:50.814Z,2.00
2023-05-06T15:48:57.602Z,3.10
2023-05-06T15:49:54.866Z,3.40
2023-05-06T15:50:50.609Z,2.80
2023-05-06T15:51:50.592Z,2.60
2023-05-06T15:52:50.635Z,4.10
2023-05-06T15:53:50.464Z,3.90
2023-05-06T15:54:50.490Z,2.30
2023-05-06T15:55:56.725Z,2.40
2023-05-06T15:56:50.365Z,2.90
2023-05-06T15:57:50.357Z,3.80
2023-05-06T15:58:50.231Z,2.70
2023-05-06T15:59:50.242Z,2.50
2023-05-06T16:00:50.238Z,4.40
2023-05-06T16:02:25.335Z,3.70
2023-05-06T16:02:50.211Z,2.30
2023-05-06T16:03:50.222Z,2.90
2023-05-06T16:04:50.414Z,1.70
2023-05-06T16:05:50.015Z,1.90
2023-05-06T16:06:50.100Z,3.30
2023-05-06T16:07:49.887Z,2.80
2023-05-06T16:08:49.887Z,2.90
2023-05-06T16:09:49.894Z,2.10
2023-05-06T16:10:49.767Z,3.70
2023-05-06T16:11:49.793Z,2.90
2023-05-06T16:12:49.794Z,2.60
2023-05-06T16:13:49.643Z,2.90
2023-05-06T16:14:49.654Z,2.10
2023-05-06T16:15:49.679Z,2.80
2023-05-06T16:16:49.537Z,2.70
2023-05-06T16:17:49.586Z,2.30
2023-05-06T16:18:49.536Z,2.10
2023-05-06T16:19:49.414Z,2.80
2023-05-06T16:20:49.409Z,1.90
2023-05-06T16:21:49.421Z,3.10
2023-05-06T16:22:49.390Z,2.40
2023-05-06T16:23:49.297Z,1.70
2023-05-06T16:24:49.177Z,2.40
2023-05-06T16:25:49.178Z,2.40
2023-05-06T16:26:49.177Z,2.40
2023-05-06T16:27:49.075Z,2.20
2023-05-06T16:28:49.066Z,3.60
2023-05-06T16:29:49.063Z,2.40
2023-05-06T16:30:48.945Z,2.90
2023-05-06T16:31:49.061Z,2.50
2023-05-06T16:32:48.997Z,3.00
2023-05-06T16:33:48.825Z,2.30
2023-05-06T16:34:48.834Z,2.70
2023-05-06T16:35:48.832Z,3.20
2023-05-06T16:36:48.712Z,1.70
2023-05-06T16:37:48.721Z,2.50
2023-05-06T16:38:48.803Z,3.50
2023-05-06T16:39:48.592Z,2.90
2023-05-06T16:40:48.593Z,2.00
2023-05-06T16:41:48.590Z,2.40
2023-05-06T16:42:48.495Z,3.80
2023-05-06T16:43:48.569Z,4.10
2023-05-06T16:44:48.410Z,3.20
2023-05-06T16:45:48.473Z,2.70
2023-05-06T16:46:48.423Z,4.30
2023-05-06T16:47:49.727Z,3.40
2023-05-06T16:48:48.311Z,2.90
2023-05-06T16:49:48.247Z,1.90
2023-05-06T16:50:48.134Z,3.40
2023-05-06T16:51:48.134Z,3.10
2023-05-06T16:52:48.127Z,2.30
2023-05-06T16:53:48.013Z,2.70
2023-05-06T16:54:48.032Z,3.00
2023-05-06T16:55:48.016Z,38.60
2023-05-06T16:56:52.153Z,93.90
2023-05-06T16:57:47.899Z,23.10
2023-05-06T16:58:47.777Z,29.60
2023-05-06T16:59:47.776Z,37.50
2023-05-06T17:00:47.796Z,16.30
2023-05-06T17:01:47.660Z,14.30
2023-05-06T17:02:47.737Z,9.10
2023-05-06T17:03:47.664Z,10.00
2023-05-06T17:04:47.540Z,10.60
2023-05-06T17:05:47.609Z,9.50
2023-05-06T17:06:47.542Z,13.80
2023-05-06T17:07:48.388Z,6.50
2023-05-06T17:08:47.427Z,8.80
2023-05-06T17:09:47.423Z,46.90
2023-05-06T17:10:47.320Z,26.50
2023-05-06T17:11:47.309Z,20.60
2023-05-06T17:12:47.218Z,12.00
2023-05-06T17:13:47.192Z,4.80
2023-05-06T17:14:47.185Z,3.20
2023-05-06T17:15:47.277Z,4.20
2023-05-06T17:16:47.113Z,2.60
2023-05-06T17:17:47.097Z,3.70
2023-05-06T17:18:47.041Z,3.20
2023-05-06T17:19:47.051Z,2.90
2023-05-06T17:20:55.053Z,3.10
2023-05-06T17:21:46.839Z,33.20
2023-05-06T17:22:46.834Z,9.50
2023-05-06T17:23:46.836Z,5.10
2023-05-06T17:24:46.717Z,7.20
2023-05-06T17:25:46.721Z,5.70
2023-05-06T17:26:46.686Z,11.00
2023-05-06T17:27:46.610Z,4.80
2023-05-06T17:28:46.601Z,4.70
2023-05-06T17:30:46.580Z,2.00
2023-05-06T17:31:46.495Z,2.10
2023-05-06T17:32:46.391Z,2.80
2023-05-06T17:33:46.384Z,3.00
2023-05-06T17:34:46.374Z,3.30
2023-05-06T17:35:46.255Z,2.70
2023-05-06T17:36:46.253Z,2.90
2023-05-06T17:37:46.251Z,2.40
2023-05-06T17:38:46.187Z,2.80
2023-05-06T17:39:46.133Z,2.00
2023-05-06T17:40:46.016Z,2.30
2023-05-06T17:41:46.019Z,3.50
2023-05-06T17:42:46.107Z,2.70
2023-05-06T17:43:45.896Z,3.50
2023-05-06T17:44:45.898Z,2.90
2023-05-06T17:45:45.903Z,2.80
2023-05-06T17:46:45.852Z,3.00
2023-05-06T17:47:45.800Z,3.90
2023-05-06T17:48:45.783Z,3.70
2023-05-06T17:49:45.708Z,3.90
2023-05-06T17:50:45.669Z,2.90
2023-05-06T17:51:45.665Z,2.60
2023-05-06T17:52:45.547Z,3.00
2023-05-06T17:53:45.546Z,2.70
2023-05-06T17:54:46.067Z,3.10
2023-05-06T17:55:45.430Z,2.60
2023-05-06T17:56:45.437Z,2.10
2023-05-06T17:57:45.323Z,2.90
2023-05-06T17:59:45.332Z,1.70
2023-05-06T18:00:45.192Z,2.20
2023-05-06T18:01:45.266Z,2.10
2023-05-06T18:02:45.365Z,2.10
2023-05-06T18:03:45.196Z,3.30
2023-05-06T18:04:45.082Z,3.50
2023-05-06T18:05:45.051Z,3.00
2023-05-06T18:06:44.963Z,3.40
2023-05-06T18:07:44.963Z,2.60
2023-05-06T18:08:44.842Z,2.40
2023-05-06T18:09:44.855Z,3.40
2023-05-06T18:10:44.845Z,3.60
2023-05-06T18:11:44.726Z,4.40
2023-05-06T18:12:44.743Z,2.40
2023-05-06T18:13:44.730Z,3.20
2023-05-06T18:14:44.607Z,2.80
2023-05-06T18:15:44.737Z,4.10
2023-05-06T18:16:44.660Z,2.80
2023-05-06T18:17:44.519Z,2.30
2023-05-06T18:18:44.493Z,2.90
2023-05-06T18:20:28.660Z,2.40
2023-05-06T18:21:27.826Z,3.40
2023-05-06T18:22:27.818Z,2.90
2023-05-06T18:23:27.696Z,2.30
2023-05-06T18:24:27.704Z,2.80
2023-05-06T18:25:27.702Z,3.90
2023-05-06T18:26:43.280Z,2.10
2023-05-06T18:27:27.580Z,3.10
2023-05-06T18:28:27.584Z,3.30
2023-05-06T18:29:27.465Z,3.10
2023-05-06T18:30:27.462Z,2.40
2023-05-06T18:31:27.542Z,2.10
2023-05-06T18:32:27.372Z,2.90
2023-05-06T18:33:27.351Z,2.20
2023-05-06T18:34:27.249Z,3.60
2023-05-06T18:35:27.258Z,2.50
2023-05-06T18:36:27.236Z,2.70
2023-05-06T18:37:27.112Z,2.00
2023-05-06T18:38:27.120Z,1.80
2023-05-06T18:39:27.126Z,2.20
2023-05-06T18:40:26.995Z,5.10
2023-05-06T18:41:27.017Z,3.60
2023-05-06T18:42:27.011Z,3.10
2023-05-06T18:43:26.878Z,2.40
2023-05-06T18:44:26.884Z,2.10
2023-05-06T18:45:26.822Z,2.20
2023-05-06T18:46:26.870Z,2.90
2023-05-06T18:47:26.929Z,2.20
2023-05-06T18:48:26.677Z,3.30
2023-05-06T18:49:26.651Z,2.20
2023-05-06T18:50:26.662Z,3.20
2023-05-06T18:51:26.539Z,2.20
2023-05-06T18:52:26.532Z,2.20
2023-05-06T18:53:26.539Z,3.10
2023-05-06T18:54:26.407Z,2.40
2023-05-06T18:55:26.412Z,3.10
2023-05-06T18:56:26.415Z,2.00
2023-05-06T18:57:26.289Z,2.90
2023-05-06T18:58:26.295Z,2.20
2023-05-06T18:59:26.175Z,3.20
2023-05-06T19:00:26.176Z,2.40
2023-05-06T19:01:26.345Z,2.40
2023-05-06T19:02:26.084Z,2.50
2023-05-06T19:03:26.072Z,2.50
2023-05-06T19:04:26.129Z,2.70
2023-05-06T19:05:25.949Z,4.90
2023-05-06T19:06:25.946Z,2.40
2023-05-06T19:07:25.911Z,2.70
2023-05-06T19:08:25.830Z,3.00
2023-05-06T19:09:25.829Z,2.30
2023-05-06T19:10:25.828Z,3.00
2023-05-06T19:11:25.794Z,2.60
2023-05-06T19:12:25.846Z,4.10
2023-05-06T19:13:25.657Z,3.20
2023-05-06T19:14:25.701Z,3.80
2023-05-06T19:15:25.593Z,2.60
2023-05-06T19:16:25.496Z,2.60
2023-05-06T19:17:25.574Z,3.30
2023-05-06T19:18:25.370Z,4.50
2023-05-06T19:19:25.449Z,3.10
2023-05-06T19:20:25.368Z,4.60
2023-05-06T19:21:25.245Z,2.70
2023-05-06T19:22:25.243Z,2.90
2023-05-06T19:23:25.251Z,3.70
2023-05-06T19:24:25.123Z,4.10
2023-05-06T19:25:25.130Z,3.20
2023-05-06T19:26:25.135Z,2.60
2023-05-06T19:27:25.009Z,2.60
2023-05-06T19:28:25.015Z,2.70
2023-05-06T19:29:24.974Z,4.70
2023-05-06T19:30:24.897Z,3.10
2023-05-06T19:31:24.996Z,3.30
2023-05-06T19:32:24.850Z,2.90
2023-05-06T19:33:24.772Z,2.90
2023-05-06T19:34:24.793Z,3.00
2023-05-06T19:35:24.747Z,3.60
2023-05-06T19:36:24.655Z,3.90
2023-05-06T19:37:24.630Z,4.00
2023-05-06T19:38:24.542Z,3.20
2023-05-06T19:39:24.544Z,4.00
2023-05-06T19:40:24.422Z,5.00
2023-05-06T19:41:24.432Z,2.90
2023-05-06T19:42:24.432Z,2.30
2023-05-06T19:43:24.320Z,3.60
2023-05-06T19:44:24.309Z,2.40
2023-05-06T19:45:24.312Z,3.30
2023-05-06T19:46:24.233Z,2.70
2023-05-06T19:47:24.244Z,3.10
2023-05-06T19:48:24.200Z,4.10
2023-05-06T19:49:24.076Z,2.80
2023-05-06T19:50:24.073Z,3.70
2023-05-06T19:51:24.049Z,3.00
2023-05-06T19:52:23.955Z,3.70
2023-05-06T19:53:24.093Z,4.10
2023-05-06T19:54:23.843Z,5.60
2023-05-06T19:55:23.839Z,3.40
2023-05-06T19:56:23.844Z,3.30
2023-05-06T19:57:23.717Z,4.30
2023-05-06T19:58:23.728Z,3.00
2023-05-06T19:59:23.608Z,4.70
2023-05-06T20:00:23.606Z,3.20
2023-05-06T20:01:23.638Z,4.50
2023-05-06T20:02:23.631Z,3.40
2023-05-06T20:03:23.616Z,5.80
2023-05-06T20:04:23.489Z,3.70
2023-05-06T20:05:23.418Z,3.70
2023-05-06T20:06:23.371Z,3.30
2023-05-06T20:07:23.480Z,5.40
2023-05-06T20:08:23.254Z,4.20
2023-05-06T20:09:23.264Z,5.90
2023-05-06T20:10:23.133Z,7.90
2023-05-06T20:11:23.227Z,10.10
2023-05-06T20:12:23.141Z,12.80
2023-05-06T20:13:23.200Z,10.20
2023-05-06T20:14:23.018Z,14.60
2023-05-06T20:15:23.032Z,14.40
2023-05-06T20:16:22.923Z,13.10
2023-05-06T20:17:22.916Z,13.50
2023-05-06T20:18:22.803Z,12.60
2023-05-06T20:19:22.794Z,12.10
2023-05-06T20:20:22.787Z,12.10
2023-05-06T20:21:22.661Z,10.30
2023-05-06T20:22:22.668Z,9.40
2023-05-06T20:23:22.761Z,11.50
2023-05-06T20:24:22.556Z,9.30
2023-05-06T20:25:22.556Z,7.40
2023-05-06T20:26:24.495Z,8.40
2023-05-06T20:27:22.453Z,6.20
2023-05-06T20:28:22.440Z,7.70
2023-05-06T20:29:22.313Z,5.90
2023-05-06T20:30:22.338Z,5.70
2023-05-06T20:31:22.355Z,5.20
2023-05-06T20:32:22.195Z,6.70
2023-05-06T20:33:22.216Z,6.80
2023-05-06T20:34:22.199Z,5.20
2023-05-06T20:35:22.100Z,5.10
2023-05-06T20:36:22.087Z,5.30
2023-05-06T20:37:21.963Z,5.00
2023-05-06T20:38:21.983Z,5.40
2023-05-06T20:39:22.011Z,5.40
2023-05-06T20:40:21.860Z,7.80
2023-05-06T20:41:21.853Z,5.80
2023-05-06T20:42:21.853Z,5.20
2023-05-06T20:43:21.732Z,4.90
2023-05-06T20:44:21.742Z,4.90
2023-05-06T20:45:21.610Z,4.90
2023-05-06T20:46:21.730Z,5.00
2023-05-06T20:47:21.659Z,5.10
2023-05-06T20:48:21.501Z,5.80
2023-05-06T20:49:21.491Z,4.40
2023-05-06T20:50:21.495Z,5.30
2023-05-06T20:51:21.376Z,6.50
2023-05-06T20:52:21.383Z,5.60
2023-05-06T20:53:21.344Z,5.90
2023-05-06T20:54:21.274Z,5.90
2023-05-06T20:55:21.367Z,5.30
2023-05-06T20:56:21.139Z,4.30
2023-05-06T20:57:21.151Z,5.00
2023-05-06T20:58:21.146Z,5.10
2023-05-06T20:59:21.025Z,5.40
2023-05-06T21:00:21.017Z,4.90
2023-05-06T21:01:21.070Z,4.90
2023-05-06T21:03:46.857Z,4.40
2023-05-06T21:04:46.714Z,6.60
2023-05-06T21:05:46.706Z,6.30
2023-05-06T21:06:46.585Z,4.90
2023-05-06T21:07:46.598Z,5.80
2023-05-06T21:08:46.595Z,4.60
2023-05-06T21:09:46.469Z,6.60
2023-05-06T21:10:46.562Z,5.90
2023-05-06T21:11:46.473Z,5.10
2023-05-06T21:12:46.389Z,5.40
2023-05-06T21:13:48.187Z,5.80
2023-05-06T21:14:46.236Z,5.30
2023-05-06T21:15:46.240Z,4.30
2023-05-06T21:16:46.234Z,6.00
2023-05-06T21:17:46.208Z,4.90
2023-05-06T21:18:46.163Z,5.50
2023-05-06T21:19:46.120Z,4.70
2023-05-06T21:20:46.012Z,4.70
2023-05-06T21:21:46.050Z,4.90
2023-05-06T21:22:46.002Z,4.70
2023-05-06T21:23:45.886Z,4.80
2023-05-06T21:24:45.884Z,5.50
2023-05-06T21:25:45.779Z,4.90
2023-05-06T21:26:45.962Z,5.10
2023-05-06T21:27:45.775Z,5.60
2023-05-06T21:28:45.647Z,5.40
2023-05-06T21:30:29.090Z,5.00
2023-05-06T21:31:29.061Z,6.30
2023-05-06T21:32:28.998Z,9.70
2023-05-06T21:33:28.855Z,6.40
2023-05-06T21:34:28.854Z,5.00
2023-05-06T21:35:28.857Z,8.50
2023-05-06T21:36:28.746Z,6.20
2023-05-06T21:37:28.763Z,5.40
2023-05-06T21:38:28.742Z,5.80
2023-05-06T21:39:28.618Z,4.90
2023-05-06T21:40:28.630Z,5.60
2023-05-06T21:41:28.630Z,5.00
2023-05-06T21:42:28.596Z,5.00
2023-05-06T21:43:29.093Z,5.30
2023-05-06T21:44:28.395Z,6.10
2023-05-06T21:45:28.385Z,6.40
2023-05-06T21:46:28.419Z,5.40
2023-05-06T21:47:28.323Z,5.70
2023-05-06T21:48:28.280Z,5.80
2023-05-06T21:49:28.269Z,7.10
2023-05-06T21:50:28.181Z,6.10
2023-05-06T21:51:28.174Z,7.30
2023-05-06T21:52:28.030Z,5.20
2023-05-06T21:53:28.036Z,5.60
2023-05-06T21:54:28.040Z,5.90
2023-05-06T21:55:27.918Z,5.00
2023-05-06T21:56:27.927Z,6.10
2023-05-06T21:57:27.942Z,6.70
2023-05-06T21:58:27.820Z,6.60
2023-05-06T21:59:27.821Z,6.60
2023-05-06T22:00:27.771Z,7.60
2023-05-06T22:01:27.721Z,5.60
2023-05-06T22:02:27.788Z,7.90
2023-05-06T22:03:27.639Z,5.40
2023-05-06T22:04:27.569Z,6.70
2023-05-06T22:05:27.568Z,5.60
2023-05-06T22:06:27.454Z,6.90
2023-05-06T22:07:27.455Z,6.00
2023-05-06T22:08:27.460Z,6.30
2023-05-06T22:09:27.333Z,7.10
2023-05-06T22:10:27.345Z,7.00
2023-05-06T22:11:27.215Z,6.30
2023-05-06T22:12:27.220Z,8.90
2023-05-06T22:13:27.373Z,6.20
2023-05-06T22:14:33.763Z,7.00
2023-05-06T22:15:27.306Z,6.30
2023-05-06T22:16:27.132Z,6.20
2023-05-06T22:17:27.022Z,6.70
2023-05-06T22:18:26.984Z,6.80
2023-05-06T22:19:26.877Z,7.20
2023-05-06T22:20:26.871Z,7.40
2023-05-06T22:21:26.869Z,7.30
2023-05-06T22:22:26.747Z,7.50
2023-05-06T22:23:26.747Z,6.70
2023-05-06T22:25:26.631Z,8.00
2023-05-06T22:26:26.629Z,6.70
2023-05-06T22:27:26.631Z,7.80
2023-05-06T22:28:26.516Z,6.30
2023-05-06T22:29:26.517Z,7.70
2023-05-06T22:30:26.482Z,6.70
2023-05-06T22:31:26.418Z,7.00
2023-05-06T22:32:26.436Z,7.40
2023-05-06T22:33:26.301Z,6.70
2023-05-06T22:34:26.279Z,6.80
2023-05-06T22:35:26.295Z,6.70
2023-05-06T22:36:26.161Z,7.50
2023-05-06T22:38:26.048Z,8.50
2023-05-06T22:39:26.044Z,6.40
2023-05-06T22:40:26.046Z,6.80
2023-05-06T22:41:25.925Z,7.20
2023-05-06T22:42:25.927Z,7.10
2023-05-06T22:43:25.928Z,8.80
2023-05-06T22:44:25.806Z,8.60
2023-05-06T22:45:25.810Z,8.30
2023-05-06T22:46:26.005Z,6.60
2023-05-06T22:47:25.750Z,7.90
2023-05-06T22:48:25.705Z,7.20
2023-05-06T22:49:25.571Z,7.40
2023-05-06T22:50:25.580Z,9.10
2023-05-06T22:51:25.573Z,8.20
2023-05-06T22:52:25.458Z,7.40
2023-05-06T22:53:25.459Z,8.20
2023-05-06T22:54:25.461Z,7.80
2023-05-06T22:55:25.339Z,6.50
2023-05-06T22:56:25.339Z,7.10
2023-05-06T22:57:25.381Z,8.20
2023-05-06T22:58:25.235Z,7.50
2023-05-06T22:59:25.226Z,8.10
2023-05-06T23:00:25.109Z,7.00
2023-05-06T23:01:25.194Z,6.50
2023-05-06T23:02:25.222Z,7.70
2023-05-06T23:03:25.051Z,7.80
2023-05-06T23:04:24.997Z,7.80
2023-05-06T23:05:24.872Z,7.00
2023-05-06T23:06:24.868Z,7.30
2023-05-06T23:07:24.867Z,8.60
2023-05-06T23:08:24.755Z,7.10
2023-05-06T23:09:24.756Z,6.90
2023-05-06T23:10:24.760Z,7.40
2023-05-06T23:11:24.636Z,7.30
2023-05-06T23:12:24.726Z,7.20
2023-05-06T23:13:24.683Z,7.40
2023-05-06T23:14:24.520Z,7.30
2023-05-06T23:15:24.529Z,7.80
2023-05-06T23:16:24.429Z,7.90
2023-05-06T23:17:24.425Z,8.30
2023-05-06T23:18:24.422Z,7.40
2023-05-06T23:19:24.279Z,9.60
2023-05-06T23:20:24.301Z,8.70
2023-05-06T23:21:24.167Z,7.90
2023-05-06T23:22:24.167Z,7.70
2023-05-06T23:23:24.175Z,7.90
2023-05-06T23:24:24.055Z,8.30
2023-05-06T23:25:24.067Z,9.20
2023-05-06T23:26:24.060Z,10.10
2023-05-06T23:27:23.933Z,7.90
2023-05-06T23:28:23.938Z,8.60
2023-05-06T23:29:23.935Z,10.30
2023-05-06T23:30:23.814Z,8.70
2023-05-06T23:31:23.877Z,7.90
2023-05-06T23:32:23.701Z,9.40
2023-05-06T23:33:23.696Z,9.70
2023-05-06T23:34:23.793Z,9.90
2023-05-06T23:35:23.586Z,9.20
2023-05-06T23:36:23.585Z,9.70
2023-05-06T23:37:23.586Z,10.50
2023-05-06T23:38:23.464Z,8.60
2023-05-06T23:39:23.469Z,9.70
2023-05-06T23:40:23.349Z,8.20
2023-05-06T23:41:23.349Z,8.80
2023-05-06T23:42:25.504Z,7.70
2023-05-06T23:43:23.236Z,7.80
2023-05-06T23:44:23.253Z,9.20
2023-05-06T23:45:23.244Z,8.10
2023-05-06T23:46:23.178Z,8.60
2023-05-06T23:47:23.135Z,8.80
2023-05-06T23:48:23.002Z,8.50
2023-05-06T23:49:23.001Z,10.10
2023-05-06T23:50:23.017Z,8.40
2023-05-06T23:51:22.877Z,9.50
2023-05-06T23:52:22.890Z,9.00
2023-05-06T23:53:22.888Z,8.30
2023-05-06T23:54:22.762Z,10.10
2023-05-06T23:55:22.766Z,9.30
2023-05-06T23:56:22.648Z,9.70
2023-05-06T23:57:22.647Z,9.70
2023-05-06T23:58:22.662Z,9.70
2023-05-06T23:59:22.527Z,9.70
